Airfield :
LOGIN :

Register | Disclaimer

   EN    FR    IT 

 










Legend :    VFR   Marginal VFR   IFR   Intensive IFR   Very Intensive IFR
Visi :
Ceiling :
>= 8 km
>= 3000ft
5 to 8 km
1000 to 3000 ft
1500m to 5 km
500 to 1000 ft
800 to 1500m
200 to 500 ft
< 800m
< 200 ft
Symbols :   Thunderstorms  Fog  Heavy snow  Heavy precipitations  Wind > 20 kt
SIGMETs :     Misc.  Thunderstorms  Icing  Turbulence  Mountain Waves  Volcanic Ashes






- Airport Elevation : 353 ft
- IATA code : ZAG


LDZA - Zagreb Pleso

CURRENT METAR :
  • 181900Z 05003KT 340V110 CAVOK 15/09 Q1012 NOSIG

EXPIRED METARs :
  • 181830Z 04005KT 360V090 CAVOK 16/09 Q1011 NOSIG
  • 181800Z 01005KT 350V050 CAVOK 17/10 Q1011 NOSIG
  • 181730Z 01010KT 330V030 CAVOK 17/09 Q1011 RETS BECMG 06005KT
  • 181700Z VRB04KT 9999 -TSRA FEW045CB 19/09 Q1011 BECMG FM1730 NSW FEW050
  • 181630Z 22003KT CAVOK 21/09 Q1010 TEMPO SHRA FEW050TCU

TAF TAF LDZA
Valid from the 18 at 18:00 until the 19 at 18:00 UTC


181725Z 1818/1918 24006KT 9999 FEW045 TX17/1818Z TN10/1905Z
BECMG 1901/1903 04008KT RA
PROB30
TEMPO 1905/1910 04015KT 4000 SHRA BKN010 SCT025TCU OVC040
BECMG 1910/1912 NSW
PROB30
TEMPO 1915/1918 27010KT SHRA FEW030TCU
ATIS : +385 1 6-259-214



MET'MAP, your aeronautical weather chart ! - Copyright ORBIFLY December 2007 - Disclaimer

ORBIFLY MET'MAP TEAM :

Programming & Development : Alexandra Zaïnal
Concept & original design : Baudouin d'Aumeries
Assistance for programming : Marc-Olivier Méhu
Technical & hardware support : Manuel Goepfert

Contact : metmap@orbifly.com




SOURCES & CREDITS :

   NOAA